Terminal Aerodrome Forecast
Issued by NWS

Home | Current Version | Previous Version | Text Only | Print | Product List | Glossary On
Versions: 1 2 3 4 5 6 7 8 9 10 11 12 13 14 15 16 17 18
860
FTUS46 KSEW 302102 AAA
TAFBFI
TAF AMD
KBFI 302102Z 3021/3118 33005KT P6SM VCSH SCT025 BKN050
     FM310000 33010KT P6SM SCT025 BKN050
     FM310600 VRB03KT P6SM SCT040 SCT200
     FM311700 VRB03KT P6SM BKN200=

USA.gov is the U.S. government's official web portal to all federal, state and local government web resources and services.